Time;durP1;ratioP1;P1;durP2;ratioP2;P2;SDS_P1;SDS_P2;PMS_P1;PMS_P2;Temp;Humidity;BMP_temperature;BMP_pressure;BME280_temperature;BME280_humidity;BME280_pressure;Samples;Min_cycle;Max_cycle;Signal;HPM_P1;HPM_P2
2022/02/04 00:21:21;;;;;;;0.75;0.75;;;8.00;99.90;;;;;;5036248;28;20594;-75
2022/02/04 00:23:42;;;;;;;;;;;8.10;99.90;;;;;;5036434;28;20104;-72
2022/02/04 00:26:17;;;;;;;0.15;0.15;;;8.10;99.90;;;;;;5036167;28;20400;-72
2022/02/04 00:31:24;;;;;;;0.60;0.60;;;8.00;99.90;;;;;;5036504;28;20022;-72
2022/02/04 00:33:54;;;;;;;0.20;0.20;;;8.00;99.90;;;;;;5036542;28;20493;-75
2022/02/04 00:38:50;;;;;;;0.52;0.52;;;8.10;99.90;;;;;;5035187;28;20033;-75
2022/02/04 00:41:19;;;;;;;0.90;0.85;;;8.10;99.90;;;;;;5035739;28;20021;-75
2022/02/04 00:43:48;;;;;;;0.75;0.75;;;8.10;99.90;;;;;;5034941;28;20032;-72
2022/02/04 00:46:26;;;;;;;1.25;0.75;;;8.10;99.90;;;;;;5036145;28;20048;-72
2022/02/04 00:54:15;;;;;;;0.15;0.15;;;8.10;99.90;;;;;;5035017;28;20030;-75
2022/02/04 01:26:50;;;;;;;1.00;0.30;;;8.20;99.90;;;;;;5014916;28;20061;-72
2022/02/04 01:29:15;;;;;;;0.03;0.03;;;8.20;99.90;;;;;;5014878;28;20022;-72
2022/02/04 01:31:41;;;;;;;0.47;0.40;;;8.20;99.90;;;;;;5015503;28;20394;-72
2022/02/04 01:34:07;;;;;;;0.20;0.20;;;8.20;99.90;;;;;;5015557;28;20048;-75
2022/02/04 01:36:33;;;;;;;0.45;0.40;;;8.20;99.90;;;;;;5021192;28;20105;-72
2022/02/04 01:38:58;;;;;;;0.00;0.00;;;8.20;99.90;;;;;;5034802;28;20033;-72
2022/02/04 01:41:24;;;;;;;1.40;1.08;;;8.20;99.90;;;;;;5035259;28;20068;-76
2022/02/04 01:43:50;;;;;;;0.10;0.10;;;8.20;99.90;;;;;;5033544;28;20033;-72
2022/02/04 01:46:16;;;;;;;0.03;0.03;;;8.20;99.90;;;;;;5035428;28;20524;-72
2022/02/04 01:48:43;;;;;;;0.00;0.00;;;8.20;99.90;;;;;;5033231;28;20032;-72
2022/02/04 01:51:12;;;;;;;0.00;0.00;;;8.30;99.90;;;;;;5035214;28;20544;-75
2022/02/04 01:53:38;;;;;;;0.00;0.00;;;8.30;99.90;;;;;;5034211;28;20018;-75
2022/02/04 01:56:06;;;;;;;0.10;0.10;;;8.30;99.90;;;;;;5034925;28;20424;-76
2022/02/04 01:58:32;;;;;;;0.45;0.15;;;8.30;99.90;;;;;;5034608;28;20064;-73
2022/02/04 02:00:58;;;;;;;0.00;0.00;;;8.40;99.90;;;;;;5034022;28;20032;-72
2022/02/04 02:03:24;;;;;;;0.98;0.70;;;8.40;99.90;;;;;;5033890;28;20120;-72
2022/02/04 02:05:52;;;;;;;0.03;0.03;;;8.40;99.90;;;;;;5034138;28;20080;-73
2022/02/04 02:08:20;;;;;;;0.00;0.00;;;8.50;99.90;;;;;;5019699;28;20374;-73
2022/02/04 02:10:48;;;;;;;0.30;0.30;;;8.50;99.90;;;;;;5014749;28;20105;-72
2022/02/04 02:58:17;;;;;;;0.75;0.63;;;8.30;99.90;;;;;;5033780;28;20026;-72
2022/02/04 03:03:44;;;;;;;0.10;0.10;;;8.30;99.90;;;;;;5020777;28;20033;-75
2022/02/04 03:06:09;;;;;;;0.10;0.10;;;8.20;99.90;;;;;;5032838;28;20052;-76
2022/02/04 03:08:35;;;;;;;0.00;0.00;;;8.20;99.90;;;;;;5028013;28;20029;-72
2022/02/04 03:11:01;;;;;;;0.22;0.22;;;8.20;99.90;;;;;;5013612;28;20374;-72
2022/02/04 03:13:28;;;;;;;0.52;0.52;;;8.10;99.90;;;;;;5013244;28;20534;-72
2022/02/04 03:16:00;;;;;;;0.00;0.00;;;8.10;99.90;;;;;;5012832;28;20022;-72
2022/02/04 03:18:29;;;;;;;0.25;0.20;;;8.00;99.90;;;;;;5013215;28;20145;-72
2022/02/04 03:21:00;;;;;;;0.40;0.40;;;8.00;99.90;;;;;;5013305;28;20086;-72
2022/02/04 03:23:29;;;;;;;0.00;0.00;;;8.00;99.90;;;;;;5013352;28;20033;-72
2022/02/04 03:26:03;;;;;;;0.00;0.00;;;8.00;99.90;;;;;;5013302;28;20092;-75
2022/02/04 03:28:30;;;;;;;0.20;0.20;;;8.00;99.90;;;;;;5012762;28;20520;-75
2022/02/04 03:30:57;;;;;;;0.30;0.30;;;7.90;99.90;;;;;;5013423;28;20030;-72
2022/02/04 03:33:26;;;;;;;0.30;0.30;;;7.90;99.90;;;;;;5013480;28;20072;-72
2022/02/04 03:35:52;;;;;;;0.00;0.00;;;7.90;99.90;;;;;;5012216;28;20473;-75
2022/02/04 03:38:17;;;;;;;0.03;0.03;;;7.90;99.90;;;;;;5032438;28;20029;-72
2022/02/04 03:40:43;;;;;;;0.13;0.13;;;7.80;99.90;;;;;;5033002;28;20025;-72
2022/02/04 03:43:12;;;;;;;0.10;0.10;;;7.80;99.90;;;;;;5033917;28;20022;-73
2022/02/04 03:45:38;;;;;;;0.32;0.20;;;7.80;99.90;;;;;;5032398;28;20060;-72
2022/02/04 03:48:04;;;;;;;0.20;0.20;;;7.80;99.90;;;;;;5032339;28;20064;-72
2022/02/04 03:50:30;;;;;;;0.00;0.00;;;7.80;99.90;;;;;;5031573;28;20021;-76
2022/02/04 03:52:55;;;;;;;0.30;0.30;;;7.70;99.90;;;;;;5032340;28;20076;-75
2022/02/04 03:55:21;;;;;;;0.10;0.10;;;7.70;99.90;;;;;;5032939;28;20121;-73
2022/02/04 03:57:47;;;;;;;0.10;0.10;;;7.70;99.90;;;;;;5032876;28;20033;-72
2022/02/04 04:00:16;;;;;;;0.20;0.20;;;7.80;99.90;;;;;;5031705;28;20556;-75
2022/02/04 04:02:42;;;;;;;0.00;0.00;;;7.70;99.90;;;;;;5033023;28;20047;-75
2022/02/04 04:05:10;;;;;;;0.10;0.10;;;7.80;99.90;;;;;;5032743;28;20030;-75
2022/02/04 04:07:41;;;;;;;0.10;0.10;;;7.80;99.90;;;;;;5032357;28;20029;-75
2022/02/04 04:10:12;;;;;;;0.13;0.13;;;7.80;99.90;;;;;;5032480;28;20022;-76
2022/02/04 04:12:37;;;;;;;0.22;0.20;;;7.80;99.90;;;;;;5031225;28;20542;-75
2022/02/04 04:15:09;;;;;;;0.30;0.30;;;7.80;99.90;;;;;;5032680;28;20100;-72
2022/02/04 04:17:42;;;;;;;0.10;0.10;;;7.80;99.90;;;;;;5032318;28;20021;-72
2022/02/04 04:20:13;;;;;;;0.00;0.00;;;7.80;99.90;;;;;;5031294;28;20148;-76
2022/02/04 04:22:40;;;;;;;0.17;0.17;;;7.80;99.90;;;;;;5031661;28;20065;-72
2022/02/04 04:25:07;;;;;;;0.22;0.22;;;7.80;99.90;;;;;;5031441;28;20049;-75
2022/02/04 04:27:33;;;;;;;0.10;0.10;;;7.80;99.90;;;;;;5032463;28;20029;-75
2022/02/04 04:29:59;;;;;;;0.63;0.63;;;7.80;99.90;;;;;;5032574;28;20032;-76
2022/02/04 04:32:25;;;;;;;0.65;0.65;;;7.80;99.90;;;;;;5031350;28;20053;-75
2022/02/04 04:34:50;;;;;;;0.43;0.43;;;7.80;99.90;;;;;;5031908;28;20032;-75
2022/02/04 04:37:16;;;;;;;0.28;0.28;;;7.90;99.90;;;;;;5032261;28;20029;-72
2022/02/04 05:29:28;;;;;;;0.10;0.10;;;8.40;99.90;;;;;;5015483;28;20424;-75
2022/02/04 05:31:54;;;;;;;6.32;1.48;;;8.40;99.90;;;;;;5015182;28;20018;-72
2022/02/04 05:34:21;;;;;;;0.30;0.30;;;8.40;99.90;;;;;;5014890;28;20030;-72
2022/02/04 05:36:53;;;;;;;0.17;0.17;;;8.40;99.90;;;;;;5022567;28;20064;-75
2022/02/04 05:39:24;;;;;;;0.70;0.43;;;8.50;99.90;;;;;;5034807;28;20488;-76
2022/02/04 05:41:50;;;;;;;0.00;0.00;;;8.50;99.90;;;;;;5035023;28;20049;-72
2022/02/04 05:44:17;;;;;;;0.00;0.00;;;8.50;99.90;;;;;;5035209;28;20017;-75
2022/02/04 05:46:52;;;;;;;0.22;0.22;;;8.50;99.90;;;;;;5032544;28;20022;-72
2022/02/04 05:49:20;;;;;;;0.32;0.32;;;8.50;99.90;;;;;;5034849;28;20029;-73
2022/02/04 05:51:59;;;;;;;0.00;0.00;;;8.50;99.90;;;;;;5033569;28;20049;-73
2022/02/04 05:57:08;;;;;;;0.22;0.22;;;8.50;99.90;;;;;;5035053;28;20075;-72
2022/02/04 06:05:22;;;;;;;0.00;0.00;;;8.60;99.90;;;;;;5048925;28;20041;-75
2022/02/04 06:11:01;;;;;;;1.08;0.55;;;8.70;99.90;;;;;;5033749;28;20041;-73
2022/02/04 06:23:57;;;;;;;0.55;0.55;;;9.10;99.90;;;;;;5033731;28;20029;-72
2022/02/04 06:26:24;;;;;;;0.40;0.40;;;9.20;99.90;;;;;;5034040;28;20827;-73
2022/02/04 06:28:50;;;;;;;0.63;0.50;;;9.20;99.90;;;;;;5033721;28;20036;-72
2022/02/04 06:31:16;;;;;;;0.05;0.05;;;9.20;99.90;;;;;;5034143;28;20021;-75
2022/02/04 06:33:43;;;;;;;0.10;0.10;;;9.20;99.90;;;;;;5033180;28;20026;-73
2022/02/04 06:36:08;;;;;;;0.25;0.25;;;9.30;99.90;;;;;;5033541;28;20018;-75
2022/02/04 06:38:34;;;;;;;0.10;0.10;;;9.40;99.90;;;;;;5033522;28;20105;-72
2022/02/04 06:41:00;;;;;;;0.20;0.20;;;9.40;99.90;;;;;;5033710;28;20025;-72
2022/02/04 06:43:26;;;;;;;1.85;0.90;;;9.40;99.90;;;;;;5033612;28;20397;-72
2022/02/04 06:45:52;;;;;;;0.08;0.08;;;9.40;99.90;;;;;;5020689;28;20030;-72
2022/02/04 06:48:17;;;;;;;0.03;0.03;;;9.40;99.90;;;;;;5030430;28;20025;-73
2022/02/04 06:50:43;;;;;;;0.00;0.00;;;9.40;99.90;;;;;;5033380;28;20056;-72
2022/02/04 06:53:09;;;;;;;0.08;0.08;;;9.50;99.90;;;;;;5032958;28;20401;-72
2022/02/04 06:55:34;;;;;;;0.22;0.22;;;9.40;99.90;;;;;;5033368;28;20401;-72
2022/02/04 06:58:04;;;;;;;0.00;0.00;;;9.50;99.90;;;;;;5033276;28;20579;-76
2022/02/04 07:00:29;;;;;;;0.00;0.00;;;9.40;99.90;;;;;;5033105;28;20048;-73
2022/02/04 07:02:56;;;;;;;0.00;0.00;;;9.50;99.90;;;;;;5032791;28;20025;-72
2022/02/04 07:05:23;;;;;;;0.00;0.00;;;9.50;99.90;;;;;;5031714;28;20076;-72
2022/02/04 07:08:00;;;;;;;0.32;0.17;;;9.50;99.90;;;;;;5031276;28;20112;-72
2022/02/04 07:10:51;;;;;;;0.32;0.32;;;9.50;99.90;;;;;;5031197;28;20037;-76
2022/02/04 07:13:23;;;;;;;0.13;0.13;;;9.50;99.90;;;;;;5029430;28;20032;-76
2022/02/04 07:15:56;;;;;;;0.47;0.47;;;9.50;99.90;;;;;;5030776;28;20060;-72
2022/02/04 07:21:06;;;;;;;0.00;0.00;;;9.50;99.90;;;;;;5023889;28;20056;-75
2022/02/04 07:23:33;;;;;;;0.20;0.20;;;9.50;99.90;;;;;;5028897;28;20765;-72
2022/02/04 07:25:59;;;;;;;0.35;0.35;;;9.50;99.90;;;;;;5035237;28;20075;-72
2022/02/04 07:28:25;;;;;;;0.22;0.22;;;9.50;99.90;;;;;;5031805;28;20029;-76
2022/02/04 07:30:52;;;;;;;0.45;0.45;;;9.60;99.90;;;;;;5031731;28;20056;-73
2022/02/04 07:33:21;;;;;;;1.55;0.73;;;9.60;99.90;;;;;;5029835;28;20546;-76
2022/02/04 07:41:11;;;;;;;2.28;0.95;;;9.60;99.90;;;;;;5019566;28;20567;-73
2022/02/04 07:43:37;;;;;;;0.40;0.40;;;9.60;99.90;;;;;;5020188;28;20029;-74
2022/02/04 07:46:04;;;;;;;0.13;0.13;;;9.60;99.90;;;;;;5030743;28;20040;-76
2022/02/04 07:48:29;;;;;;;0.20;0.20;;;9.60;99.90;;;;;;5028337;28;20040;-73
2022/02/04 07:50:55;;;;;;;0.28;0.28;;;9.70;99.90;;;;;;5030218;28;20029;-76
2022/02/04 07:53:23;;;;;;;2.30;0.88;;;9.70;99.90;;;;;;5018777;28;20530;-76
2022/02/04 07:55:49;;;;;;;0.52;0.50;;;9.80;99.90;;;;;;5024380;28;20026;-76
2022/02/04 07:58:15;;;;;;;0.00;0.00;;;9.90;99.90;;;;;;5030614;28;20021;-73
2022/02/04 08:00:42;;;;;;;0.52;0.52;;;10.00;99.90;;;;;;5030321;28;20029;-73
2022/02/04 08:03:29;;;;;;;0.55;0.32;;;10.10;99.90;;;;;;5025384;28;20029;-76
2022/02/04 08:05:58;;;;;;;2.03;0.98;;;10.20;99.90;;;;;;5028409;28;20052;-76
2022/02/04 08:08:29;;;;;;;0.03;0.03;;;10.20;99.90;;;;;;5027450;28;20441;-76
2022/02/04 08:14:00;;;;;;;0.30;0.20;;;10.20;99.90;;;;;;5028914;28;20580;-76
2022/02/04 08:22:30;;;;;;;0.75;0.75;;;10.20;99.90;;;;;;5023908;28;20112;-72
2022/02/04 08:48:50;;;;;;;0.25;0.25;;;10.40;99.90;;;;;;5024604;28;20049;-73
2022/02/04 08:56:36;;;;;;;0.60;0.60;;;10.40;99.90;;;;;;5026935;28;20086;-77
2022/02/04 08:59:10;;;;;;;2.33;1.27;;;10.50;99.90;;;;;;5052004;28;20017;-76
2022/02/04 09:01:41;;;;;;;0.10;0.10;;;10.50;99.90;;;;;;5048102;28;20056;-74
2022/02/04 09:04:12;;;;;;;1.75;0.55;;;10.50;99.90;;;;;;5038047;28;20496;-74
2022/02/04 09:06:44;;;;;;;1.42;0.75;;;10.60;99.90;;;;;;5032709;28;20060;-74
2022/02/04 09:09:15;;;;;;;7.60;1.58;;;10.60;99.90;;;;;;5031678;28;20033;-76
2022/02/04 09:11:46;;;;;;;0.22;0.22;;;10.60;99.90;;;;;;5061192;28;20524;-74
2022/02/04 09:17:13;;;;;;;1.65;1.00;;;10.70;99.90;;;;;;5032101;28;20056;-76
2022/02/04 09:20:03;;;;;;;0.00;0.00;;;10.70;99.90;;;;;;5024291;28;20097;-73
2022/02/04 09:24:53;;;;;;;0.20;0.20;;;10.80;99.90;;;;;;5032077;28;20060;-74
2022/02/04 09:27:19;;;;;;;0.43;0.43;;;10.90;99.90;;;;;;5023691;28;20840;-77
2022/02/04 09:29:45;;;;;;;0.00;0.00;;;10.90;99.90;;;;;;5017967;28;20026;-74
2022/02/04 09:32:10;;;;;;;0.52;0.52;;;10.90;99.90;;;;;;5036305;28;20399;-77
2022/02/04 09:34:36;;;;;;;0.10;0.10;;;10.70;99.90;;;;;;5042300;28;20488;-74
2022/02/04 09:37:02;;;;;;;2.75;0.65;;;10.50;99.90;;;;;;5026631;28;20454;-76
2022/02/04 09:39:27;;;;;;;0.00;0.00;;;10.30;99.90;;;;;;5031099;28;20022;-74
2022/02/04 09:41:53;;;;;;;0.00;0.00;;;10.20;99.90;;;;;;5031701;28;20033;-74
2022/02/04 09:44:19;;;;;;;0.00;0.00;;;10.10;99.90;;;;;;5032142;28;20025;-74
2022/02/04 09:46:45;;;;;;;0.00;0.00;;;10.20;99.90;;;;;;5032029;28;20085;-73
2022/02/04 09:49:23;;;;;;;0.00;0.00;;;10.10;99.90;;;;;;5029878;28;20037;-74
2022/02/04 10:17:15;;;;;;;0.00;0.00;;;10.70;99.90;;;;;;5022690;28;20036;-76
2022/02/04 10:22:10;;;;;;;0.00;0.00;;;10.60;99.90;;;;;;5043079;28;20137;-76
2022/02/04 10:24:36;;;;;;;0.28;0.28;;;10.50;99.90;;;;;;5028989;28;20619;-76
2022/02/04 10:27:16;;;;;;;0.00;0.00;;;10.40;99.90;;;;;;5030264;28;20113;-76
2022/02/04 10:30:17;;;;;;;0.00;0.00;;;10.30;99.90;;;;;;5031184;28;20017;-76
2022/02/04 10:32:50;;;;;;;0.00;0.00;;;10.30;99.90;;;;;;5019807;28;20044;-77
2022/02/04 10:35:16;;;;;;;0.00;0.00;;;10.30;99.90;;;;;;5031588;28;20040;-77
2022/02/04 10:40:45;;;;;;;;;;;10.40;99.90;;;;;;5026130;28;20073;-77
2022/02/04 10:46:26;;;;;;;0.00;0.00;;;10.90;99.90;;;;;;5022925;28;20045;-74
2022/02/04 10:49:13;;;;;;;0.00;0.00;;;11.20;99.90;;;;;;5023585;28;20044;-74
2022/02/04 10:51:58;;;;;;;0.00;0.00;;;11.50;99.90;;;;;;5030724;28;20496;-77
2022/02/04 11:02:32;;;;;;;1.88;0.80;;;11.70;99.90;;;;;;5027754;28;20044;-77
2022/02/04 11:10:24;;;;;;;0.00;0.00;;;11.70;99.90;;;;;;5032938;28;20044;-74
2022/02/04 11:55:11;;;;;;;0.00;0.00;;;11.40;99.90;;;;;;5027972;28;20159;-77
2022/02/04 11:57:40;;;;;;;0.00;0.00;;;11.60;99.90;;;;;;5027392;28;20052;-77
2022/02/04 12:00:24;;;;;;;0.20;0.20;;;11.80;99.90;;;;;;5028544;28;20033;-77
2022/02/04 12:02:52;;;;;;;0.98;0.75;;;11.80;99.90;;;;;;5027187;28;20400;-77
2022/02/04 12:05:17;;;;;;;0.10;0.10;;;12.00;99.90;;;;;;5028910;28;20033;-74
2022/02/04 12:07:48;;;;;;;0.00;0.00;;;12.00;99.90;;;;;;5025322;28;20400;-74
2022/02/04 12:10:13;;;;;;;4.53;0.28;;;12.00;99.90;;;;;;5024207;28;20049;-77
2022/02/04 12:15:29;;;;;;;1.67;0.47;;;12.10;99.90;;;;;;5027559;28;20473;-77
2022/02/04 12:17:57;;;;;;;0.73;0.73;;;12.10;99.90;;;;;;5029110;28;20030;-77
2022/02/04 12:20:45;;;;;;;1.75;1.65;;;12.00;99.90;;;;;;5024880;28;20033;-77
2022/02/04 12:23:26;;;;;;;0.38;0.38;;;12.20;99.90;;;;;;5030610;28;20038;-74
2022/02/04 12:26:09;;;;;;;0.75;0.28;;;12.40;99.90;;;;;;5030654;28;20439;-74
2022/02/04 12:28:38;;;;;;;0.00;0.00;;;12.30;99.90;;;;;;5030815;28;20060;-74
2022/02/04 12:31:19;;;;;;;0.30;0.15;;;12.00;99.90;;;;;;5032993;28;20037;-78
2022/02/04 12:33:49;;;;;;;0.10;0.10;;;12.00;99.90;;;;;;5026509;28;20064;-74
2022/02/04 12:36:16;;;;;;;0.00;0.00;;;11.90;99.90;;;;;;5036232;28;20034;-74
2022/02/04 12:38:42;;;;;;;0.03;0.03;;;11.80;99.90;;;;;;5033334;28;20485;-77
2022/02/04 12:41:08;;;;;;;0.00;0.00;;;11.60;99.90;;;;;;5031205;28;20460;-74
2022/02/04 12:43:37;;;;;;;0.00;0.00;;;11.50;99.90;;;;;;5031031;28;20091;-76
2022/02/04 12:46:04;;;;;;;0.00;0.00;;;11.60;99.90;;;;;;5033388;28;20029;-80
2022/02/04 12:48:30;;;;;;;0.10;0.10;;;11.60;99.90;;;;;;5032002;28;20037;-79
2022/02/04 12:50:56;;;;;;;0.00;0.00;;;11.40;99.90;;;;;;5032850;28;20484;-77
2022/02/04 12:53:28;;;;;;;2.95;0.90;;;11.30;99.90;;;;;;5031483;28;20059;-74
2022/02/04 12:56:33;;;;;;;0.10;0.10;;;11.20;99.90;;;;;;5032341;28;20104;-74
2022/02/04 13:02:22;;;;;;;0.00;0.00;;;11.40;99.90;;;;;;5029293;28;20070;-77
2022/02/04 13:09:56;;;;;;;0.00;0.00;;;11.90;99.90;;;;;;5032062;28;20094;-77
2022/02/04 13:12:22;;;;;;;0.00;0.00;;;12.30;99.90;;;;;;5031526;28;20400;-73
2022/02/04 13:14:49;;;;;;;0.00;0.00;;;12.20;99.90;;;;;;5035258;28;20025;-76
2022/02/04 13:17:28;;;;;;;0.00;0.00;;;12.20;99.90;;;;;;5038453;28;20028;-76
2022/02/04 13:19:56;;;;;;;0.08;0.00;;;12.30;99.90;;;;;;5040082;28;20420;-74
2022/02/04 13:22:22;;;;;;;0.00;0.00;;;12.40;99.90;;;;;;5044414;28;20056;-74
2022/02/04 13:25:07;;;;;;;0.00;0.00;;;12.50;99.90;;;;;;5033811;28;20088;-77
2022/02/04 13:27:33;;;;;;;0.00;0.00;;;12.60;99.90;;;;;;5033131;28;20029;-76
2022/02/04 13:29:59;;;;;;;0.00;0.00;;;12.40;99.90;;;;;;5031897;28;20396;-75
2022/02/04 13:32:26;;;;;;;0.00;0.00;;;12.20;99.90;;;;;;5027894;28;20021;-77
2022/02/04 13:34:53;;;;;;;0.10;0.10;;;12.10;99.90;;;;;;5025337;28;20050;-74
2022/02/04 13:37:28;;;;;;;0.00;0.00;;;12.50;99.90;;;;;;5027847;28;20523;-77
2022/02/04 13:40:01;;;;;;;0.00;0.00;;;12.40;99.90;;;;;;5029457;28;20037;-76
2022/02/04 13:42:48;;;;;;;0.00;0.00;;;12.10;99.90;;;;;;5039147;28;20047;-77
2022/02/04 13:45:29;;;;;;;0.00;0.00;;;12.20;99.90;;;;;;5039826;28;20037;-73
2022/02/04 13:48:11;;;;;;;0.13;0.13;;;12.50;99.90;;;;;;5046027;28;20029;-74
2022/02/04 13:53:32;;;;;;;0.08;0.08;;;12.70;99.90;;;;;;5036167;28;20124;-74
2022/02/04 13:56:15;;;;;;;0.25;0.20;;;12.90;99.90;;;;;;5029379;28;20025;-78
2022/02/04 14:03:43;;;;;;;3.30;0.35;;;12.60;99.90;;;;;;5037260;28;20029;-73
2022/02/04 14:06:15;;;;;;;0.00;0.00;;;12.90;99.90;;;;;;5032032;28;20029;-73
2022/02/04 14:11:35;;;;;;;1.08;0.13;;;12.80;99.90;;;;;;5036547;28;20028;-72
2022/02/04 14:14:04;;;;;;;0.00;0.00;;;13.00;99.90;;;;;;5037091;28;20053;-73
2022/02/04 14:16:30;;;;;;;0.00;0.00;;;13.30;99.90;;;;;;5034076;28;20033;-73
2022/02/04 14:18:56;;;;;;;0.15;0.15;;;13.30;99.90;;;;;;5040113;28;20037;-77
2022/02/04 14:21:22;;;;;;;0.10;0.10;;;13.00;99.90;;;;;;5043393;28;20411;-77
2022/02/04 14:23:52;;;;;;;0.00;0.00;;;12.90;99.90;;;;;;5043183;28;20130;-72
2022/02/04 14:26:26;;;;;;;0.47;0.30;;;12.80;99.90;;;;;;5033409;28;20042;-77
2022/02/04 14:29:02;;;;;;;0.00;0.00;;;13.00;99.90;;;;;;5031916;28;20025;-73
2022/02/04 14:53:07;;;;;;;0.00;0.00;;;12.20;99.90;;;;;;5032112;28;20041;-73
2022/02/04 15:01:09;;;;;;;3.75;1.55;;;12.00;99.90;;;;;;5032516;28;20029;-75
2022/02/04 15:03:38;;;;;;;0.00;0.00;;;12.10;99.90;;;;;;5032312;28;20128;-76
2022/02/04 15:06:10;;;;;;;0.00;0.00;;;12.10;99.90;;;;;;5032936;28;20104;-72
2022/02/04 15:08:37;;;;;;;0.00;0.00;;;12.00;99.90;;;;;;5031971;28;20179;-72
2022/02/04 15:11:12;;;;;;;0.00;0.00;;;12.00;99.90;;;;;;5032304;28;20040;-73
2022/02/04 15:13:39;;;;;;;27.38;3.30;;;11.80;99.90;;;;;;5032555;28;20045;-76
2022/02/04 15:16:07;;;;;;;0.00;0.00;;;11.90;99.90;;;;;;5032310;28;20022;-72
2022/02/04 15:18:34;;;;;;;0.00;0.00;;;11.80;99.90;;;;;;5032270;28;20021;-73
2022/02/04 15:21:02;;;;;;;0.00;0.00;;;11.80;99.90;;;;;;5032497;28;20044;-72
2022/02/04 15:23:28;;;;;;;1.55;0.80;;;11.80;99.90;;;;;;5032297;28;20029;-75
2022/02/04 15:25:56;;;;;;;1.15;0.47;;;11.80;99.90;;;;;;5031903;28;20041;-76
2022/02/04 15:31:00;;;;;;;0.00;0.00;;;11.80;99.90;;;;;;5031742;28;20028;-76
2022/02/04 15:33:30;;;;;;;0.65;0.65;;;11.70;99.90;;;;;;5032287;28;20104;-74
2022/02/04 15:35:57;;;;;;;0.40;0.30;;;11.70;99.90;;;;;;5032071;28;20121;-75
2022/02/04 15:38:25;;;;;;;0.00;0.00;;;11.70;99.90;;;;;;5032394;28;20534;-73
2022/02/04 15:40:51;;;;;;;0.00;0.00;;;11.70;99.90;;;;;;5032488;28;20029;-72
2022/02/04 15:43:16;;;;;;;1.13;0.95;;;11.80;99.90;;;;;;5032217;28;20061;-73
2022/02/04 15:48:23;;;;;;;0.32;0.32;;;11.80;99.90;;;;;;5028501;28;20040;-72
2022/02/04 15:53:55;;;;;;;0.35;0.08;;;11.80;99.90;;;;;;5031141;28;20400;-75
2022/02/04 16:01:52;;;;;;;0.00;0.00;;;11.70;99.90;;;;;;5032284;28;20036;-72
2022/02/04 16:06:29;;;;;;;0.00;0.00;;;11.50;99.90;;;;;;5046442;28;20071;-76
2022/02/04 16:08:57;;;;;;;0.00;0.00;;;11.40;99.90;;;;;;5031526;28;20057;-72
2022/02/04 16:11:34;;;;;;;0.00;0.00;;;11.40;99.90;;;;;;5031555;28;20507;-77
2022/02/04 16:14:15;;;;;;;2.17;1.65;;;11.20;99.90;;;;;;5031505;28;20017;-72
2022/02/04 16:16:46;;;;;;;0.00;0.00;;;11.10;99.90;;;;;;5031877;28;20116;-76
2022/02/04 16:29:44;;;;;;;0.08;0.08;;;11.10;99.90;;;;;;5032172;28;20120;-72
2022/02/04 16:32:10;;;;;;;0.25;0.25;;;11.00;99.90;;;;;;5032205;28;20049;-72
2022/02/04 16:34:36;;;;;;;0.00;0.00;;;11.00;99.90;;;;;;5033852;28;20029;-75
2022/02/04 16:37:05;;;;;;;1.98;0.95;;;10.90;99.90;;;;;;5032244;28;20068;-72
2022/02/04 16:39:36;;;;;;;0.00;0.00;;;10.90;99.90;;;;;;5030942;28;20034;-75
2022/02/04 16:42:04;;;;;;;0.00;0.00;;;10.80;99.90;;;;;;5032307;28;20057;-72
2022/02/04 16:44:31;;;;;;;0.00;0.00;;;10.80;99.90;;;;;;5031818;28;20085;-75
2022/02/04 16:47:01;;;;;;;0.00;0.00;;;10.80;99.90;;;;;;5018505;28;20010;-75
2022/02/04 16:49:30;;;;;;;0.20;0.20;;;10.80;99.90;;;;;;5032362;28;20064;-76
2022/02/04 16:51:57;;;;;;;0.00;0.00;;;10.80;99.90;;;;;;5031755;28;20029;-76
2022/02/04 16:54:25;;;;;;;0.00;0.00;;;10.80;99.90;;;;;;5031700;28;20396;-73
2022/02/04 16:56:51;;;;;;;2.20;1.88;;;10.80;99.90;;;;;;5032282;28;20493;-72
2022/02/04 16:59:17;;;;;;;0.00;0.00;;;10.80;99.90;;;;;;5037321;28;20040;-72
2022/02/04 17:01:43;;;;;;;0.00;0.00;;;10.70;99.90;;;;;;5035485;28;20061;-76
2022/02/04 17:04:10;;;;;;;0.00;0.00;;;10.70;99.90;;;;;;5035905;28;20061;-72
2022/02/04 17:06:40;;;;;;;0.00;0.00;;;10.70;99.90;;;;;;5035882;28;20029;-75
2022/02/04 17:09:53;;;;;;;0.00;0.00;;;10.70;99.90;;;;;;5035072;28;20041;-72
2022/02/04 17:12:01;;;;;;;0.00;0.00;;;10.70;99.90;;;;;;5038188;28;20118;-74
2022/02/04 17:14:28;;;;;;;1.08;0.98;;;10.70;99.90;;;;;;5034825;28;20022;-76
2022/02/04 17:16:55;;;;;;;0.47;0.47;;;10.60;99.90;;;;;;5034936;28;20033;-72
2022/02/04 17:19:25;;;;;;;0.00;0.00;;;10.60;99.90;;;;;;5036391;28;20504;-77
2022/02/04 17:21:51;;;;;;;0.30;0.30;;;10.60;99.90;;;;;;5035622;28;20383;-72
2022/02/04 17:24:18;;;;;;;0.00;0.00;;;10.60;99.90;;;;;;5034980;28;20030;-76
2022/02/04 17:26:44;;;;;;;0.10;0.10;;;10.60;99.90;;;;;;5035319;28;20029;-72
2022/02/04 17:29:13;;;;;;;0.00;0.00;;;10.60;99.90;;;;;;5035283;28;20034;-75
2022/02/04 17:31:39;;;;;;;0.00;0.00;;;10.60;99.90;;;;;;5038004;28;20071;-72
2022/02/04 17:34:06;;;;;;;0.00;0.00;;;10.50;99.90;;;;;;5035151;28;20416;-72
2022/02/04 17:36:33;;;;;;;0.00;0.00;;;10.50;99.90;;;;;;5034985;28;20018;-75
2022/02/04 17:39:01;;;;;;;5.78;1.80;;;10.50;99.90;;;;;;5034849;28;20025;-72
2022/02/04 17:41:27;;;;;;;0.00;0.00;;;10.50;99.90;;;;;;5038283;28;20419;-75
2022/02/04 17:43:54;;;;;;;0.10;0.10;;;10.40;99.90;;;;;;5034842;28;20030;-76
2022/02/04 17:46:25;;;;;;;0.50;0.05;;;10.40;99.90;;;;;;5020807;28;20389;-72
2022/02/04 17:48:59;;;;;;;0.63;0.63;;;10.30;99.90;;;;;;5034414;28;20022;-72
2022/02/04 17:54:17;;;;;;;0.00;0.00;;;10.30;99.90;;;;;;5023457;28;20030;-75
2022/02/04 18:02:08;;;;;;;0.00;0.00;;;10.30;99.90;;;;;;5035190;28;20032;-72
2022/02/04 18:07:24;;;;;;;0.00;0.00;;;10.20;99.90;;;;;;5034431;28;20519;-72
2022/02/04 18:09:51;;;;;;;0.45;0.45;;;10.10;99.90;;;;;;5033701;28;20064;-72
2022/02/04 18:12:21;;;;;;;0.40;0.32;;;10.10;99.90;;;;;;5034547;28;20532;-72
2022/02/04 18:14:48;;;;;;;0.00;0.00;;;10.00;99.90;;;;;;5034653;28;20524;-72
2022/02/04 18:17:14;;;;;;;5.05;1.98;;;10.00;99.90;;;;;;5034263;28;20049;-72
2022/02/04 18:19:41;;;;;;;2.22;1.25;;;9.90;99.90;;;;;;5034127;28;20463;-75
2022/02/04 18:22:07;;;;;;;0.08;0.08;;;9.90;99.90;;;;;;5034397;28;20070;-73
2022/02/04 18:24:33;;;;;;;0.32;0.32;;;9.80;99.90;;;;;;5033711;28;20552;-75
2022/02/04 18:26:59;;;;;;;0.15;0.15;;;9.80;99.90;;;;;;5034221;28;20045;-76
2022/02/04 18:29:25;;;;;;;0.00;0.00;;;9.80;99.90;;;;;;5034123;28;20060;-75
2022/02/04 18:31:50;;;;;;;0.00;0.00;;;9.80;99.90;;;;;;5033846;28;20024;-72
2022/02/04 18:34:17;;;;;;;0.00;0.00;;;9.70;99.90;;;;;;5033365;28;20029;-75
2022/02/04 18:36:44;;;;;;;0.80;0.80;;;9.70;99.90;;;;;;5034112;28;20044;-73
2022/02/04 18:44:24;;;;;;;0.00;0.00;;;9.40;99.90;;;;;;5036051;28;20086;-75
2022/02/04 18:59:36;;;;;;;0.00;0.00;;;9.00;99.90;;;;;;5032577;28;20504;-72
2022/02/04 19:02:02;;;;;;;0.00;0.00;;;9.00;99.90;;;;;;5032994;28;20555;-72
2022/02/04 19:04:35;;;;;;;0.00;0.00;;;8.90;99.90;;;;;;5032886;28;20104;-72
2022/02/04 19:07:16;;;;;;;0.00;0.00;;;8.90;99.90;;;;;;5033437;28;20041;-72
2022/02/04 19:09:44;;;;;;;0.00;0.00;;;8.80;99.90;;;;;;5033811;28;20033;-72
2022/02/04 19:12:15;;;;;;;0.03;0.03;;;8.80;99.90;;;;;;5033696;28;20508;-72
2022/02/04 19:17:15;;;;;;;0.03;0.03;;;8.70;99.90;;;;;;5032850;28;20033;-72
2022/02/04 19:19:52;;;;;;;0.00;0.00;;;8.70;99.90;;;;;;5033347;28;20439;-72
2022/02/04 19:22:36;;;;;;;0.00;0.00;;;8.70;99.90;;;;;;5032460;28;20033;-74
2022/02/04 19:25:07;;;;;;;0.00;0.00;;;8.60;99.90;;;;;;5033347;28;20516;-72
2022/02/04 19:27:32;;;;;;;0.00;0.00;;;8.60;99.90;;;;;;5033150;28;20100;-72
2022/02/04 19:29:58;;;;;;;1.80;0.45;;;8.60;99.90;;;;;;5033169;28;20100;-74
2022/02/04 19:32:25;;;;;;;0.00;0.00;;;8.60;99.90;;;;;;5033164;28;20026;-74
2022/02/04 19:34:51;;;;;;;0.25;0.25;;;8.60;99.90;;;;;;5032741;28;20033;-72
2022/02/04 19:37:17;;;;;;;0.00;0.00;;;8.60;99.90;;;;;;5032854;28;20017;-75
2022/02/04 19:39:46;;;;;;;0.00;0.00;;;8.60;99.90;;;;;;5034052;28;20025;-72
2022/02/04 19:42:28;;;;;;;0.00;0.00;;;8.60;99.90;;;;;;5033186;28;20030;-71
2022/02/04 19:45:08;;;;;;;0.00;0.00;;;8.50;99.90;;;;;;5029810;28;20025;-74
2022/02/04 19:47:42;;;;;;;0.00;0.00;;;8.60;99.90;;;;;;5024137;28;20022;-72
2022/02/04 19:50:20;;;;;;;0.00;0.00;;;8.50;99.90;;;;;;5032839;28;20014;-72
2022/02/04 20:25:04;;;;;;;4.65;0.38;;;8.20;99.90;;;;;;5032976;28;20594;-74
2022/02/04 20:27:33;;;;;;;0.10;0.10;;;8.20;99.90;;;;;;5032969;28;20396;-75
2022/02/04 20:30:00;;;;;;;0.28;0.28;;;8.10;99.90;;;;;;5032634;28;20022;-72
2022/02/04 20:32:26;;;;;;;0.17;0.17;;;8.10;99.90;;;;;;5033528;28;20388;-72
2022/02/04 20:34:52;;;;;;;0.00;0.00;;;8.00;99.90;;;;;;5035292;28;20029;-72
2022/02/04 20:37:18;;;;;;;0.00;0.00;;;8.00;99.90;;;;;;5036171;28;20377;-72
2022/02/04 20:39:55;;;;;;;0.00;0.00;;;7.90;99.90;;;;;;5037110;28;20036;-72
2022/02/04 20:42:21;;;;;;;0.00;0.00;;;7.90;99.90;;;;;;5036343;28;20026;-72
2022/02/04 20:44:50;;;;;;;0.00;0.00;;;7.80;99.90;;;;;;5033086;28;20060;-74